createdAt,value
2019-03-22T00:00:17.422Z,4.37
2019-03-22T00:02:45.697Z,4.73
2019-03-22T00:05:14.518Z,4.17
2019-03-22T00:07:43.362Z,4.37
2019-03-22T00:10:11.619Z,4.63
2019-03-22T00:12:40.448Z,4.57
2019-03-22T00:15:08.769Z,4.03
2019-03-22T00:17:37.042Z,4.40
2019-03-22T00:20:06.941Z,4.27
2019-03-22T00:22:35.756Z,3.90
2019-03-22T00:25:06.821Z,3.73
2019-03-22T00:27:35.077Z,4.00
2019-03-22T00:30:06.336Z,3.70
2019-03-22T00:32:34.604Z,3.93
2019-03-22T00:35:03.030Z,3.57
2019-03-22T00:37:31.282Z,4.27
2019-03-22T00:39:59.548Z,3.37
2019-03-22T00:42:27.802Z,4.13
2019-03-22T00:44:56.073Z,3.60
2019-03-22T00:47:24.317Z,3.53
2019-03-22T00:49:52.584Z,3.67
2019-03-22T00:52:20.838Z,3.70
2019-03-22T00:54:49.105Z,3.37
2019-03-22T00:57:27.748Z,3.67
2019-03-22T00:59:47.354Z,3.60
2019-03-22T01:02:15.602Z,3.27
2019-03-22T01:04:44.433Z,3.30
2019-03-22T01:07:12.849Z,3.67
2019-03-22T01:09:41.115Z,3.20
2019-03-22T01:12:09.369Z,3.60
2019-03-22T01:14:37.634Z,3.50
2019-03-22T01:17:05.901Z,3.37
2019-03-22T01:19:34.193Z,3.30
2019-03-22T01:22:02.445Z,3.90
2019-03-22T01:24:30.693Z,3.30
2019-03-22T01:26:58.961Z,3.90
2019-03-22T01:29:27.215Z,3.83
2019-03-22T01:31:56.050Z,3.37
2019-03-22T01:34:24.317Z,3.53
2019-03-22T01:36:52.638Z,3.50
2019-03-22T01:39:20.890Z,3.63
2019-03-22T01:41:49.154Z,3.60
2019-03-22T01:44:17.417Z,2.80
2019-03-22T01:46:45.681Z,3.40
2019-03-22T01:49:13.937Z,3.60
2019-03-22T01:51:42.742Z,3.50
2019-03-22T01:54:10.999Z,2.77
2019-03-22T01:56:39.265Z,3.17
2019-03-22T01:59:07.514Z,3.40
2019-03-22T02:01:35.773Z,3.50
2019-03-22T02:04:04.031Z,2.90
2019-03-22T02:06:32.292Z,3.13
2019-03-22T02:09:00.552Z,3.53
2019-03-22T02:11:28.817Z,3.10
2019-03-22T02:13:57.155Z,3.37
2019-03-22T02:16:25.409Z,2.77
2019-03-22T02:18:53.661Z,2.90
2019-03-22T02:21:21.929Z,3.13
2019-03-22T02:23:52.092Z,2.80
2019-03-22T02:26:20.838Z,2.70
2019-03-22T02:28:49.102Z,3.10
2019-03-22T02:31:17.361Z,3.67
2019-03-22T02:33:45.627Z,2.90
2019-03-22T02:36:14.928Z,3.03
2019-03-22T02:38:43.178Z,2.83
2019-03-22T02:41:11.505Z,3.10
2019-03-22T02:43:39.796Z,3.07
2019-03-22T02:46:08.056Z,3.23
2019-03-22T02:48:36.354Z,2.70
2019-03-22T02:51:04.602Z,2.70
2019-03-22T02:53:32.865Z,2.97
2019-03-22T02:56:01.230Z,2.87
2019-03-22T02:58:29.686Z,2.60
2019-03-22T03:00:57.930Z,2.40
2019-03-22T03:03:26.195Z,2.83
2019-03-22T03:05:54.446Z,3.10
2019-03-22T03:08:22.710Z,2.60
2019-03-22T03:10:50.965Z,2.50
2019-03-22T03:13:19.226Z,2.90
2019-03-22T03:15:47.485Z,2.60
2019-03-22T03:18:15.744Z,2.80
2019-03-22T03:20:44.459Z,2.57
2019-03-22T03:23:12.731Z,2.73
2019-03-22T03:25:41.554Z,3.00
2019-03-22T03:28:09.831Z,2.67
2019-03-22T03:30:38.083Z,2.27
2019-03-22T03:33:06.366Z,2.43
2019-03-22T03:35:34.694Z,2.37
2019-03-22T03:38:02.956Z,2.20
2019-03-22T03:40:31.282Z,2.30
2019-03-22T03:42:59.554Z,2.80
2019-03-22T03:45:35.968Z,2.30
2019-03-22T03:48:10.274Z,2.50
2019-03-22T03:50:38.625Z,2.20
2019-03-22T03:53:07.227Z,2.37
2019-03-22T03:55:35.494Z,2.60
2019-03-22T03:58:05.127Z,2.43
2019-03-22T04:00:33.433Z,2.40
2019-03-22T04:03:01.863Z,2.40
2019-03-22T04:05:30.132Z,2.13
2019-03-22T04:07:58.393Z,2.80
2019-03-22T04:10:26.646Z,2.30
2019-03-22T04:12:54.904Z,2.67
2019-03-22T04:15:23.184Z,2.27
2019-03-22T04:17:51.517Z,2.70
2019-03-22T04:20:20.143Z,2.30
2019-03-22T04:22:48.404Z,2.00
2019-03-22T04:25:16.712Z,2.17
2019-03-22T04:27:45.000Z,2.07
2019-03-22T04:30:13.277Z,2.20
2019-03-22T04:32:41.537Z,2.30
2019-03-22T04:35:09.870Z,2.10
2019-03-22T04:37:38.124Z,2.20
2019-03-22T04:40:27.878Z,2.07
2019-03-22T04:42:56.199Z,2.30
2019-03-22T04:45:25.402Z,2.10
2019-03-22T04:47:59.562Z,2.00
2019-03-22T04:50:28.003Z,1.87
2019-03-22T04:52:56.255Z,2.33
2019-03-22T04:55:25.101Z,1.87
2019-03-22T04:57:53.926Z,2.37
2019-03-22T05:00:22.190Z,2.00
2019-03-22T05:02:50.926Z,2.20
2019-03-22T05:05:19.772Z,1.73
2019-03-22T05:07:48.017Z,1.97
2019-03-22T05:10:16.287Z,2.27
2019-03-22T05:12:44.538Z,2.03
2019-03-22T05:15:13.542Z,2.00
2019-03-22T05:17:42.451Z,1.80
2019-03-22T05:20:10.713Z,2.00
2019-03-22T05:22:38.974Z,1.77
2019-03-22T05:25:07.233Z,2.10
2019-03-22T05:27:35.570Z,2.10
2019-03-22T05:30:05.186Z,1.90
2019-03-22T05:32:33.446Z,2.07
2019-03-22T05:35:01.716Z,1.90
2019-03-22T05:37:29.977Z,2.00
2019-03-22T05:39:58.234Z,1.73
2019-03-22T05:42:26.493Z,1.97
2019-03-22T05:44:54.743Z,1.77
2019-03-22T05:47:23.007Z,1.97
2019-03-22T05:49:51.262Z,1.57
2019-03-22T05:52:19.525Z,2.10
2019-03-22T05:54:47.809Z,2.10
2019-03-22T05:57:16.069Z,1.90
2019-03-22T05:59:44.325Z,2.17
2019-03-22T06:02:12.604Z,2.00
2019-03-22T06:04:40.866Z,1.80
2019-03-22T06:07:09.126Z,2.10
2019-03-22T06:09:37.386Z,2.10
2019-03-22T06:12:05.649Z,1.87
2019-03-22T06:14:33.902Z,2.07
2019-03-22T06:17:02.247Z,1.90
2019-03-22T06:19:30.619Z,2.23
2019-03-22T06:21:59.154Z,2.10
2019-03-22T06:24:27.406Z,2.00
2019-03-22T06:26:55.697Z,2.17
2019-03-22T06:29:23.958Z,2.00
2019-03-22T06:31:52.215Z,2.00
2019-03-22T06:34:20.518Z,2.03
2019-03-22T06:36:48.844Z,3.00
2019-03-22T06:39:17.311Z,2.90
2019-03-22T06:41:45.666Z,2.70
2019-03-22T06:44:13.934Z,2.57
2019-03-22T06:46:42.192Z,2.50
2019-03-22T06:49:10.455Z,2.73
2019-03-22T06:51:38.717Z,2.50
2019-03-22T06:54:06.968Z,2.60
2019-03-22T06:56:35.217Z,3.13
2019-03-22T06:59:03.482Z,2.63
2019-03-22T07:01:31.730Z,2.33
2019-03-22T07:03:59.990Z,2.73
2019-03-22T07:06:28.247Z,2.60
2019-03-22T07:08:56.522Z,2.50
2019-03-22T07:11:24.769Z,2.30
2019-03-22T07:13:53.037Z,3.00
2019-03-22T07:16:21.285Z,2.30
2019-03-22T07:18:49.573Z,2.20
2019-03-22T07:21:17.826Z,2.50
2019-03-22T07:23:46.166Z,4.50
2019-03-22T07:26:14.422Z,7.23
2019-03-22T07:28:42.699Z,10.43
2019-03-22T07:31:10.963Z,21.50
2019-03-22T07:33:39.235Z,22.70
2019-03-22T07:36:07.498Z,22.27
2019-03-22T07:38:35.774Z,22.40
2019-03-22T07:41:04.033Z,21.83
2019-03-22T07:43:32.307Z,20.37
2019-03-22T07:46:00.566Z,20.67
2019-03-22T07:48:28.840Z,20.47
2019-03-22T07:50:57.163Z,21.87
2019-03-22T07:53:25.494Z,21.53
2019-03-22T07:55:53.750Z,21.83
2019-03-22T07:58:22.024Z,22.80
2019-03-22T08:00:50.277Z,23.03
2019-03-22T08:03:18.541Z,22.10
2019-03-22T08:05:51.539Z,24.13
2019-03-22T08:08:16.797Z,23.13
2019-03-22T08:10:45.073Z,25.97
2019-03-22T08:13:13.335Z,24.63
2019-03-22T08:15:41.608Z,25.23
2019-03-22T08:18:09.868Z,26.17
2019-03-22T08:20:38.939Z,24.70
2019-03-22T08:23:22.962Z,24.70
2019-03-22T08:25:51.536Z,24.93
2019-03-22T08:28:19.846Z,25.10
2019-03-22T08:30:48.389Z,25.37
2019-03-22T08:33:16.710Z,25.90
2019-03-22T08:35:44.973Z,25.67
2019-03-22T08:38:13.230Z,25.50
2019-03-22T08:40:44.568Z,25.73
2019-03-22T08:43:13.477Z,26.20
2019-03-22T08:45:41.798Z,25.77
2019-03-22T08:48:10.389Z,25.87
2019-03-22T08:50:38.685Z,25.97
2019-03-22T08:53:06.997Z,24.33
2019-03-22T08:55:35.278Z,24.07
2019-03-22T08:58:03.542Z,23.43
2019-03-22T09:00:39.225Z,23.93
2019-03-22T09:03:01.910Z,22.60
2019-03-22T09:05:33.266Z,22.20
2019-03-22T09:08:01.542Z,21.60
2019-03-22T09:10:29.891Z,21.30
2019-03-22T09:12:58.246Z,21.47
2019-03-22T09:15:26.558Z,21.37
2019-03-22T09:17:54.838Z,19.00
2019-03-22T09:20:23.591Z,19.30
2019-03-22T09:22:51.937Z,19.17
2019-03-22T09:25:20.976Z,20.20
2019-03-22T09:27:49.310Z,20.20
2019-03-22T09:30:17.599Z,18.97
2019-03-22T09:32:45.978Z,18.80
2019-03-22T09:35:14.278Z,19.23
2019-03-22T09:37:43.162Z,18.37
2019-03-22T09:40:11.499Z,17.03
2019-03-22T09:42:39.862Z,17.90
2019-03-22T09:45:09.033Z,18.20
2019-03-22T09:47:37.432Z,18.40
2019-03-22T09:50:11.653Z,17.93
2019-03-22T09:52:39.925Z,18.07
2019-03-22T09:55:13.949Z,18.73
2019-03-22T09:57:38.186Z,16.73
2019-03-22T10:00:18.486Z,18.10
2019-03-22T10:02:46.746Z,18.07
2019-03-22T10:05:15.004Z,17.43
2019-03-22T10:07:43.278Z,16.00
2019-03-22T10:10:11.543Z,16.43
2019-03-22T10:12:39.868Z,16.97
2019-03-22T10:15:08.149Z,15.77
2019-03-22T10:17:36.419Z,15.90
2019-03-22T10:20:06.021Z,16.30
2019-03-22T10:22:34.917Z,14.63
2019-03-22T10:25:04.692Z,15.70
2019-03-22T10:27:33.021Z,14.30
2019-03-22T10:30:01.324Z,13.03
2019-03-22T10:32:29.594Z,13.27
2019-03-22T10:34:57.918Z,13.57
2019-03-22T10:37:26.186Z,12.77
2019-03-22T10:39:54.510Z,13.60
2019-03-22T10:42:22.840Z,13.17
2019-03-22T10:44:51.167Z,11.97
2019-03-22T10:47:19.660Z,13.00
2019-03-22T10:49:47.977Z,11.97
2019-03-22T10:52:16.291Z,12.03
2019-03-22T10:54:44.632Z,11.33
2019-03-22T10:57:12.958Z,11.90
2019-03-22T10:59:41.281Z,11.80
2019-03-22T11:02:09.550Z,12.10
2019-03-22T11:04:37.852Z,11.67
2019-03-22T11:07:07.926Z,12.20
2019-03-22T11:09:36.183Z,11.47
2019-03-22T11:12:12.084Z,11.10
2019-03-22T11:14:35.030Z,10.73
2019-03-22T11:17:03.313Z,11.60
2019-03-22T11:19:31.557Z,10.10
2019-03-22T11:21:59.829Z,10.63
2019-03-22T11:24:28.094Z,10.83
2019-03-22T11:26:56.357Z,10.40
2019-03-22T11:29:24.618Z,10.23
2019-03-22T11:31:52.898Z,10.83
2019-03-22T11:34:21.162Z,10.27
2019-03-22T11:36:49.994Z,11.23
2019-03-22T11:39:18.270Z,11.03
2019-03-22T11:41:47.234Z,10.43
2019-03-22T11:44:15.509Z,11.50
2019-03-22T11:46:43.774Z,11.07
2019-03-22T11:49:12.044Z,10.60
2019-03-22T11:51:40.902Z,10.43
2019-03-22T11:54:09.174Z,10.87
2019-03-22T11:56:37.447Z,12.97
2019-03-22T11:59:05.720Z,12.00
2019-03-22T12:01:33.978Z,10.97
2019-03-22T12:04:02.249Z,11.07
2019-03-22T12:06:30.511Z,12.00
2019-03-22T12:08:58.774Z,10.60
2019-03-22T12:11:27.349Z,11.30
2019-03-22T12:13:55.622Z,11.33
2019-03-22T12:16:23.877Z,10.60
2019-03-22T12:18:52.150Z,10.93
2019-03-22T12:21:20.579Z,10.57
2019-03-22T12:23:48.845Z,10.03
2019-03-22T12:26:17.105Z,10.77
2019-03-22T12:28:45.957Z,12.73
2019-03-22T12:31:14.222Z,11.07
2019-03-22T12:33:42.508Z,11.77
2019-03-22T12:36:10.765Z,10.87
2019-03-22T12:38:39.109Z,10.63
2019-03-22T12:41:07.374Z,10.67
2019-03-22T12:43:35.650Z,11.07
2019-03-22T12:46:03.906Z,10.40
2019-03-22T12:48:32.501Z,11.17
2019-03-22T12:51:00.768Z,10.53
2019-03-22T12:53:29.032Z,11.17
2019-03-22T12:55:57.301Z,11.37
2019-03-22T12:58:25.562Z,10.47
2019-03-22T13:00:54.086Z,11.60
2019-03-22T13:03:24.381Z,11.47
2019-03-22T13:05:53.194Z,11.73
2019-03-22T13:08:21.449Z,12.10
2019-03-22T13:10:49.735Z,12.67
2019-03-22T13:13:17.998Z,12.47
2019-03-22T13:15:46.278Z,12.53
2019-03-22T13:18:14.543Z,11.70
2019-03-22T13:20:42.797Z,13.20
2019-03-22T13:23:11.067Z,11.83
2019-03-22T13:25:39.333Z,11.17
2019-03-22T13:28:07.673Z,11.90
2019-03-22T13:30:36.577Z,12.60
2019-03-22T13:33:05.105Z,12.93
2019-03-22T13:35:33.372Z,11.80
2019-03-22T13:38:01.633Z,11.57
2019-03-22T13:40:29.904Z,11.57
2019-03-22T13:42:58.328Z,12.00
2019-03-22T13:45:26.605Z,11.67
2019-03-22T13:47:54.936Z,11.93
2019-03-22T13:50:23.291Z,11.47
2019-03-22T13:52:51.549Z,11.17
2019-03-22T13:55:19.827Z,11.17
2019-03-22T13:57:48.082Z,11.10
2019-03-22T14:00:18.557Z,10.47
2019-03-22T14:02:46.821Z,11.70
2019-03-22T14:05:15.163Z,12.07
2019-03-22T14:07:43.427Z,11.27
2019-03-22T14:10:17.938Z,10.93
2019-03-22T14:12:46.199Z,11.20
2019-03-22T14:15:14.473Z,11.13
2019-03-22T14:17:42.729Z,11.00
2019-03-22T14:20:11.760Z,11.23
2019-03-22T14:22:40.154Z,10.20
2019-03-22T14:25:08.429Z,10.63
2019-03-22T14:27:36.698Z,11.53
2019-03-22T14:30:07.361Z,10.10
2019-03-22T14:32:35.642Z,11.47
2019-03-22T14:35:06.046Z,10.30
2019-03-22T14:37:34.309Z,10.67
2019-03-22T14:40:02.574Z,10.93
2019-03-22T14:42:30.849Z,10.47
2019-03-22T14:44:59.107Z,10.10
2019-03-22T14:47:27.634Z,10.47
2019-03-22T14:49:55.902Z,9.77
2019-03-22T14:52:24.187Z,10.30
2019-03-22T14:54:52.779Z,10.00
2019-03-22T14:57:21.055Z,10.73
2019-03-22T14:59:58.545Z,10.00
2019-03-22T15:02:19.317Z,9.90
2019-03-22T15:04:47.578Z,9.43
2019-03-22T15:07:19.986Z,10.03
2019-03-22T15:09:46.350Z,9.77
2019-03-22T15:12:14.774Z,9.47
2019-03-22T15:14:47.382Z,10.17
2019-03-22T15:17:22.980Z,9.93
2019-03-22T15:20:07.866Z,9.50
2019-03-22T15:22:40.786Z,9.50
2019-03-22T15:25:13.634Z,9.43
2019-03-22T15:28:00.028Z,9.63
2019-03-22T15:30:48.122Z,8.93
2019-03-22T15:33:20.736Z,9.20
2019-03-22T15:35:56.450Z,9.60
2019-03-22T15:38:42.784Z,9.73
2019-03-22T15:41:11.142Z,9.80
2019-03-22T15:43:39.411Z,8.37
2019-03-22T15:46:07.666Z,9.50
2019-03-22T15:48:36.214Z,9.63
2019-03-22T15:51:04.477Z,8.87
2019-03-22T15:53:32.750Z,9.07
2019-03-22T15:56:01.067Z,9.10
2019-03-22T15:58:29.338Z,8.83
2019-03-22T16:00:57.590Z,8.60
2019-03-22T16:03:25.867Z,9.57
2019-03-22T16:05:54.130Z,9.00
2019-03-22T16:08:22.393Z,8.83
2019-03-22T16:10:50.652Z,9.10
2019-03-22T16:13:18.930Z,9.60
2019-03-22T16:15:47.194Z,9.73
2019-03-22T16:18:15.469Z,9.60
2019-03-22T16:20:43.726Z,8.93
2019-03-22T16:23:12.008Z,9.07
2019-03-22T16:25:40.254Z,9.00
2019-03-22T16:28:08.525Z,8.30
2019-03-22T16:30:36.786Z,8.70
2019-03-22T16:33:05.051Z,8.57
2019-03-22T16:35:33.321Z,8.70
2019-03-22T16:38:01.646Z,8.40
2019-03-22T16:40:29.914Z,8.73
2019-03-22T16:42:58.186Z,8.37
2019-03-22T16:45:35.041Z,8.50
2019-03-22T16:48:03.626Z,8.43
2019-03-22T16:50:31.900Z,8.43
2019-03-22T16:53:00.235Z,8.17
2019-03-22T16:55:28.478Z,8.00
2019-03-22T16:57:57.415Z,7.97
2019-03-22T17:00:25.676Z,8.37
2019-03-22T17:02:53.995Z,8.57
2019-03-22T17:05:22.257Z,8.33
2019-03-22T17:07:50.798Z,8.33
2019-03-22T17:10:19.086Z,8.67
2019-03-22T17:12:47.339Z,7.67
2019-03-22T17:15:15.617Z,8.13
2019-03-22T17:17:43.885Z,8.63
2019-03-22T17:20:12.192Z,7.83
2019-03-22T17:22:40.454Z,8.57
2019-03-22T17:25:08.722Z,7.73
2019-03-22T17:27:37.032Z,7.10
2019-03-22T17:30:06.464Z,7.80
2019-03-22T17:32:34.728Z,8.50
2019-03-22T17:35:03.262Z,7.90
2019-03-22T17:37:31.517Z,8.23
2019-03-22T17:39:59.830Z,7.60
2019-03-22T17:42:28.120Z,7.77
2019-03-22T17:44:56.386Z,7.40
2019-03-22T17:47:24.653Z,8.57
2019-03-22T17:49:52.915Z,8.33
2019-03-22T17:52:21.446Z,8.77
2019-03-22T17:54:49.782Z,7.70
2019-03-22T17:57:18.915Z,7.70
2019-03-22T17:59:47.461Z,7.37
2019-03-22T18:02:15.733Z,8.00
2019-03-22T18:04:44.014Z,7.70
2019-03-22T18:07:12.266Z,8.23
2019-03-22T18:09:40.560Z,8.40
2019-03-22T18:12:08.869Z,7.53
2019-03-22T18:14:37.134Z,7.53
2019-03-22T18:17:05.386Z,7.73
2019-03-22T18:19:33.664Z,7.60
2019-03-22T18:22:01.923Z,7.83
2019-03-22T18:24:30.201Z,8.03
2019-03-22T18:26:58.479Z,7.27
2019-03-22T18:29:27.058Z,7.23
2019-03-22T18:31:55.442Z,6.90
2019-03-22T18:34:33.684Z,7.77
2019-03-22T18:36:53.697Z,7.77
2019-03-22T18:39:21.986Z,8.23
2019-03-22T18:41:50.306Z,8.53
2019-03-22T18:44:18.574Z,7.63
2019-03-22T18:46:46.843Z,7.50
2019-03-22T18:49:15.362Z,7.23
2019-03-22T18:51:43.623Z,7.00
2019-03-22T18:54:11.889Z,7.27
2019-03-22T18:56:40.186Z,7.70
2019-03-22T18:59:08.446Z,7.27
2019-03-22T19:01:36.709Z,7.40
2019-03-22T19:04:05.174Z,7.27
2019-03-22T19:06:33.462Z,7.30
2019-03-22T19:09:01.718Z,7.17
2019-03-22T19:11:29.986Z,7.37
2019-03-22T19:13:58.250Z,7.60
2019-03-22T19:16:26.799Z,7.00
2019-03-22T19:18:55.054Z,7.20
2019-03-22T19:21:23.322Z,6.90
2019-03-22T19:23:51.577Z,7.20
2019-03-22T19:26:19.856Z,7.73
2019-03-22T19:28:48.202Z,6.50
2019-03-22T19:31:16.643Z,7.57
2019-03-22T19:33:44.905Z,7.23
2019-03-22T19:36:13.161Z,6.97
2019-03-22T19:38:41.429Z,7.00
2019-03-22T19:41:09.684Z,7.27
2019-03-22T19:43:37.967Z,6.67
2019-03-22T19:46:06.234Z,6.80
2019-03-22T19:48:34.536Z,7.13
2019-03-22T19:51:02.793Z,7.07
2019-03-22T19:53:31.057Z,6.70
2019-03-22T19:55:59.314Z,6.80
2019-03-22T19:58:27.579Z,6.97
2019-03-22T20:00:55.842Z,7.67
2019-03-22T20:03:24.113Z,7.20
2019-03-22T20:05:52.371Z,7.13
2019-03-22T20:08:20.638Z,6.60
2019-03-22T20:10:48.894Z,7.03
2019-03-22T20:13:17.161Z,6.67
2019-03-22T20:15:45.419Z,6.90
2019-03-22T20:18:13.688Z,6.07
2019-03-22T20:20:41.997Z,6.93
2019-03-22T20:23:10.273Z,6.33
2019-03-22T20:25:38.522Z,6.43
2019-03-22T20:28:06.799Z,6.63
2019-03-22T20:30:35.054Z,6.50
2019-03-22T20:33:03.637Z,6.60
2019-03-22T20:35:31.897Z,6.70
2019-03-22T20:38:00.197Z,6.50
2019-03-22T20:40:28.458Z,6.50
2019-03-22T20:42:56.707Z,6.70
2019-03-22T20:45:24.978Z,6.27
2019-03-22T20:47:54.157Z,7.00
2019-03-22T20:50:22.417Z,6.47
2019-03-22T20:52:50.672Z,6.40
2019-03-22T20:55:18.934Z,6.40
2019-03-22T20:57:47.203Z,6.53
2019-03-22T21:00:16.701Z,6.80
2019-03-22T21:02:44.961Z,6.47
2019-03-22T21:05:13.235Z,6.70
2019-03-22T21:07:41.512Z,6.50
2019-03-22T21:10:10.324Z,6.57
2019-03-22T21:12:38.575Z,6.00
2019-03-22T21:15:08.782Z,6.90
2019-03-22T21:17:37.033Z,6.63
2019-03-22T21:20:09.103Z,6.10
2019-03-22T21:22:37.354Z,5.63
2019-03-22T21:25:06.661Z,5.90
2019-03-22T21:27:34.926Z,7.00
2019-03-22T21:30:05.134Z,6.03
2019-03-22T21:32:33.397Z,6.00
2019-03-22T21:35:01.674Z,6.13
2019-03-22T21:37:29.952Z,6.30
2019-03-22T21:39:58.217Z,6.73
2019-03-22T21:42:26.479Z,6.03
2019-03-22T21:44:54.742Z,6.20
2019-03-22T21:47:22.995Z,5.33
2019-03-22T21:49:51.270Z,6.07
2019-03-22T21:52:19.521Z,6.00
2019-03-22T21:54:47.806Z,5.93
2019-03-22T21:57:16.057Z,6.90
2019-03-22T21:59:44.321Z,6.63
2019-03-22T22:02:12.596Z,5.63
2019-03-22T22:04:40.855Z,5.90
2019-03-22T22:07:09.122Z,5.47
2019-03-22T22:09:37.382Z,6.63
2019-03-22T22:12:05.642Z,6.27
2019-03-22T22:14:40.704Z,6.20
2019-03-22T22:17:04.197Z,5.70
2019-03-22T22:19:32.475Z,5.93
2019-03-22T22:22:00.754Z,5.93
2019-03-22T22:24:29.330Z,5.70
2019-03-22T22:26:57.673Z,6.00
2019-03-22T22:29:26.033Z,5.73
2019-03-22T22:31:54.306Z,6.17
2019-03-22T22:34:22.557Z,6.03
2019-03-22T22:36:50.826Z,5.80
2019-03-22T22:39:19.091Z,5.53
2019-03-22T22:41:47.358Z,5.93
2019-03-22T22:44:15.607Z,6.07
2019-03-22T22:46:43.875Z,5.30
2019-03-22T22:49:12.130Z,6.13
2019-03-22T22:51:40.398Z,5.37
2019-03-22T22:54:08.646Z,5.93
2019-03-22T22:56:36.915Z,5.03
2019-03-22T22:59:05.172Z,5.70
2019-03-22T23:01:33.430Z,6.07
2019-03-22T23:04:01.686Z,5.40
2019-03-22T23:06:29.970Z,5.40
2019-03-22T23:08:58.217Z,5.50
2019-03-22T23:11:26.471Z,5.23
2019-03-22T23:13:54.738Z,5.73
2019-03-22T23:16:23.007Z,5.60
2019-03-22T23:18:51.268Z,5.27
2019-03-22T23:21:19.517Z,5.47
2019-03-22T23:23:47.782Z,5.57
2019-03-22T23:26:16.063Z,5.70
2019-03-22T23:28:44.435Z,5.73
2019-03-22T23:31:12.708Z,6.03
2019-03-22T23:33:40.966Z,5.97
2019-03-22T23:36:19.575Z,5.73
2019-03-22T23:38:39.202Z,5.20
2019-03-22T23:41:07.465Z,4.87
2019-03-22T23:43:35.744Z,5.20
2019-03-22T23:46:04.262Z,5.60
2019-03-22T23:48:32.529Z,5.73
2019-03-22T23:51:00.785Z,5.03
2019-03-22T23:53:29.050Z,5.47
2019-03-22T23:55:57.301Z,5.97
2019-03-22T23:58:25.567Z,5.07
